Terminal Aerodrome Forecast
Issued by NWS

Home | Current Version | Previous Version | Text Only | Print | Product List | Glossary On
Versions: 1 2 3 4 5 6 7 8 9 10 11 12 13 14
000
FTUS45 KREV 031204 RRA
TAFMMH
TAF
KMMH 031204Z 0312/0412 VRB03KT P6SM FEW180
     FM031700 11008KT P6SM FEW080 SCT180
     FM032000 20009G16KT P6SM VCTS SCT080CB BKN150
     FM032200 26011G19KT P6SM SCT090 SCT150 BKN180
     FM040500 VRB04KT P6SM SCT180=

USA.gov is the U.S. government's official web portal to all federal, state and local government web resources and services.